Time;durP1;ratioP1;P1;durP2;ratioP2;P2;SDS_P1;SDS_P2;PMS_P1;PMS_P2;Temp;Humidity;BMP_temperature;BMP_pressure;BME280_temperature;BME280_humidity;BME280_pressure;Samples;Min_cycle;Max_cycle;Signal;HPM_P1;HPM_P2
2021/01/13 03:46:44;;;;;;;3.72;1.33;;;5.80;60.00;;;;;;5245168;24;20295;-71
2021/01/13 03:49:16;;;;;;;3.88;1.30;;;5.80;60.10;;;;;;4851034;29;20097;-71
2021/01/13 03:52:14;;;;;;;3.15;1.20;;;5.80;59.40;;;;;;4852421;29;20282;-71
2021/01/13 03:54:43;;;;;;;3.67;1.20;;;5.90;59.10;;;;;;4826545;29;20050;-71
2021/01/13 03:57:09;;;;;;;4.03;1.20;;;5.70;57.60;;;;;;4814044;29;20034;-71
2021/01/13 04:00:04;;;;;;;1.90;0.82;;;5.60;57.70;;;;;;4814302;29;20034;-71
2021/01/13 04:02:54;;;;;;;3.08;1.42;;;5.70;57.20;;;;;;4777922;30;20032;-71
2021/01/13 04:05:30;;;;;;;4.38;1.05;;;5.50;57.10;;;;;;4762924;30;20055;-71
2021/01/13 04:07:57;;;;;;;4.82;0.90;;;5.50;55.70;;;;;;4778073;30;20038;-71
2021/01/13 04:10:24;;;;;;;2.42;1.23;;;5.70;56.10;;;;;;4778065;30;20036;-71
2021/01/13 04:12:57;;;;;;;7.70;1.33;;;5.70;56.40;;;;;;4762614;30;20235;-72
2021/01/13 04:15:50;;;;;;;4.20;1.38;;;5.80;56.60;;;;;;4778058;30;20272;-72
2021/01/13 04:18:18;;;;;;;5.20;1.85;;;5.90;57.30;;;;;;4707651;30;20041;-72
2021/01/13 04:20:45;;;;;;;4.38;1.27;;;6.00;57.80;;;;;;4706300;30;20056;-72
2021/01/13 04:23:11;;;;;;;8.95;2.05;;;6.00;57.60;;;;;;4707663;30;20037;-72
2021/01/13 04:25:36;;;;;;;6.75;2.38;;;6.10;57.40;;;;;;4707610;30;20113;-73
2021/01/13 04:28:03;;;;;;;9.73;1.17;;;6.10;57.60;;;;;;4707638;30;20218;-72
2021/01/13 04:30:29;;;;;;;2.67;0.90;;;6.00;57.70;;;;;;4717137;30;20057;-72
2021/01/13 04:32:56;;;;;;;7.93;1.00;;;6.20;57.60;;;;;;4727632;30;20071;-72
2021/01/13 04:35:26;;;;;;;2.58;0.85;;;6.10;57.50;;;;;;4742197;30;20043;-72
2021/01/13 04:37:53;;;;;;;1.48;0.80;;;6.20;58.00;;;;;;4729267;30;20108;-72
2021/01/13 04:40:30;;;;;;;5.10;1.00;;;6.30;57.70;;;;;;4760151;30;20360;-72
2021/01/13 04:42:59;;;;;;;;;;;6.30;57.80;;;;;;4745804;30;20235;-72
2021/01/13 04:45:36;;;;;;;7.03;0.73;;;6.20;57.60;;;;;;4759832;30;19910;-72
2021/01/13 04:48:11;;;;;;;1.88;0.80;;;6.10;57.30;;;;;;4744913;30;20059;-72
2021/01/13 04:50:39;;;;;;;5.00;1.38;;;6.10;57.60;;;;;;4759925;30;20036;-72
2021/01/13 04:53:23;;;;;;;2.75;1.00;;;6.10;58.70;;;;;;4745121;30;20039;-72
2021/01/13 04:55:51;;;;;;;4.40;1.35;;;6.00;58.20;;;;;;4806239;29;20270;-72
2021/01/13 04:58:47;;;;;;;7.05;1.35;;;5.90;58.40;;;;;;4814477;29;20075;-72
2021/01/13 05:01:31;;;;;;;;;;;5.90;58.80;;;;;;4830079;29;20046;-73
2021/01/13 05:04:16;;;;;;;17.92;4.10;;;5.90;59.40;;;;;;4829317;29;19924;-72
2021/01/13 05:06:48;;;;;;;4.32;1.33;;;5.80;59.20;;;;;;4815421;29;20334;-73
2021/01/13 05:09:15;;;;;;;5.97;1.35;;;5.90;58.70;;;;;;4817419;29;20031;-72
2021/01/13 05:11:50;;;;;;;;;;;6.00;58.80;;;;;;4818303;29;20349;-72
2021/01/13 05:14:18;;;;;;;6.15;1.00;;;5.90;58.50;;;;;;4818929;29;19980;-72
2021/01/13 05:16:49;;;;;;;3.17;1.45;;;6.00;58.70;;;;;;4828107;29;20033;-72
2021/01/13 05:19:30;;;;;;;3.58;1.00;;;6.00;58.40;;;;;;4836828;29;20030;-72
2021/01/13 05:21:57;;;;;;;3.83;1.20;;;6.00;58.40;;;;;;4835643;29;20042;-73
2021/01/13 05:24:23;;;;;;;;;;;6.00;58.90;;;;;;4836121;29;20147;-72
2021/01/13 05:27:01;;;;;;;3.80;1.20;;;6.00;58.60;;;;;;4836196;29;19909;-73
2021/01/13 05:29:26;;;;;;;4.75;1.05;;;6.10;58.50;;;;;;4836582;29;20128;-73
2021/01/13 05:31:54;;;;;;;2.35;1.00;;;6.10;58.00;;;;;;4850246;29;20038;-72
2021/01/13 05:34:21;;;;;;;4.72;0.98;;;6.10;57.50;;;;;;4827238;29;20031;-72
2021/01/13 05:37:00;;;;;;;4.60;1.48;;;6.10;57.70;;;;;;4826799;29;20030;-72
2021/01/13 05:39:30;;;;;;;5.70;1.13;;;6.10;57.30;;;;;;4829106;29;20037;-72
2021/01/13 05:42:01;;;;;;;5.53;1.02;;;6.00;57.60;;;;;;4825701;29;20041;-72
2021/01/13 05:44:30;;;;;;;2.25;0.85;;;6.10;56.90;;;;;;4821648;29;20038;-73
2021/01/13 05:47:04;;;;;;;2.63;1.33;;;6.10;57.10;;;;;;4827808;29;20054;-73
2021/01/13 05:49:30;;;;;;;8.07;1.20;;;6.00;56.40;;;;;;4826547;29;20174;-72
2021/01/13 05:52:07;;;;;;;3.28;0.95;;;6.00;56.50;;;;;;4825832;29;20058;-73
2021/01/13 05:54:36;;;;;;;1.80;0.90;;;6.00;56.20;;;;;;4828243;29;20050;-72
2021/01/13 05:57:03;;;;;;;6.15;1.38;;;6.20;56.40;;;;;;4824468;29;20027;-73
2021/01/13 05:59:30;;;;;;;10.23;1.35;;;6.20;55.50;;;;;;4821669;29;20034;-73
2021/01/13 06:02:00;;;;;;;5.88;1.23;;;6.20;55.90;;;;;;4827282;29;20030;-73
2021/01/13 06:04:27;;;;;;;3.65;0.85;;;6.30;55.40;;;;;;4823589;29;20322;-73
2021/01/13 06:07:06;;;;;;;9.50;1.23;;;6.20;54.50;;;;;;4825818;29;20031;-73
2021/01/13 06:09:42;;;;;;;3.75;1.30;;;6.20;54.10;;;;;;4828629;29;20034;-73
2021/01/13 06:12:16;;;;;;;3.33;1.10;;;6.20;54.40;;;;;;4824636;29;20213;-73
2021/01/13 06:14:42;;;;;;;2.53;1.25;;;6.20;54.30;;;;;;4840317;29;20035;-73
2021/01/13 06:17:21;;;;;;;7.90;1.17;;;6.30;53.40;;;;;;4827271;29;20014;-73
2021/01/13 06:19:48;;;;;;;8.38;0.98;;;6.20;52.40;;;;;;4825604;29;20034;-73
2021/01/13 06:22:14;;;;;;;;;;;6.10;53.20;;;;;;4831603;29;20094;-74
2021/01/13 06:24:40;;;;;;;6.37;0.90;;;6.20;52.80;;;;;;4820954;29;19908;-73
2021/01/13 06:27:17;;;;;;;8.15;1.25;;;6.20;52.40;;;;;;4826711;29;20039;-73
2021/01/13 06:29:50;;;;;;;11.45;1.25;;;6.20;51.80;;;;;;4826876;29;20071;-73
2021/01/13 06:32:33;;;;;;;4.95;1.20;;;6.10;52.20;;;;;;4829168;29;20034;-72
2021/01/13 06:35:27;;;;;;;8.15;1.40;;;6.10;52.60;;;;;;4828635;29;20310;-73
2021/01/13 06:37:55;;;;;;;6.68;0.95;;;6.30;52.10;;;;;;4826632;29;20041;-73
2021/01/13 06:40:21;;;;;;;4.38;0.98;;;6.10;52.00;;;;;;4823894;29;20411;-73
2021/01/13 06:42:47;;;;;;;7.50;1.57;;;6.20;53.00;;;;;;4817613;29;20034;-73
2021/01/13 06:45:14;;;;;;;6.13;1.60;;;6.20;52.40;;;;;;4826607;29;20186;-72
2021/01/13 06:47:56;;;;;;;7.95;1.40;;;5.90;52.20;;;;;;4821545;29;20285;-73
2021/01/13 06:50:37;;;;;;;3.90;1.00;;;5.80;52.20;;;;;;4825617;29;20060;-73
2021/01/13 06:53:09;;;;;;;6.63;1.00;;;6.00;52.00;;;;;;4817104;29;20037;-73
2021/01/13 06:55:37;;;;;;;8.63;1.13;;;5.90;51.20;;;;;;4816255;29;20071;-74
2021/01/13 06:58:12;;;;;;;6.43;1.30;;;6.10;51.80;;;;;;4818160;29;20023;-72
2021/01/13 07:00:38;;;;;;;9.52;1.13;;;6.00;50.70;;;;;;4818798;29;20026;-72
2021/01/13 07:03:30;;;;;;;2.73;0.93;;;5.80;50.70;;;;;;4824363;29;20214;-73
2021/01/13 07:06:16;;;;;;;7.95;0.82;;;5.80;50.60;;;;;;4828564;29;20373;-73
2021/01/13 07:08:42;;;;;;;5.38;1.00;;;5.90;50.70;;;;;;4829777;29;20038;-72
2021/01/13 07:11:10;;;;;;;5.80;1.38;;;6.00;51.30;;;;;;4824269;29;20336;-73
2021/01/13 07:13:38;;;;;;;5.10;0.98;;;6.00;51.20;;;;;;4824471;29;20065;-73
2021/01/13 07:16:05;;;;;;;3.75;1.08;;;6.00;51.00;;;;;;4839344;29;20050;-73
2021/01/13 07:18:32;;;;;;;8.82;1.10;;;6.00;51.00;;;;;;4824119;29;20029;-73
2021/01/13 07:21:09;;;;;;;3.88;1.15;;;6.00;51.70;;;;;;4824758;29;20039;-73
2021/01/13 07:23:46;;;;;;;6.00;1.65;;;6.00;52.50;;;;;;4824733;29;20319;-73
2021/01/13 07:26:12;;;;;;;7.30;1.63;;;5.80;54.10;;;;;;4829995;29;20180;-73
2021/01/13 07:28:39;;;;;;;5.05;1.45;;;5.80;55.20;;;;;;4823597;29;20319;-73
2021/01/13 07:31:07;;;;;;;3.70;1.70;;;5.90;56.10;;;;;;4821908;29;20045;-73
2021/01/13 07:33:40;;;;;;;4.85;1.77;;;5.90;56.80;;;;;;4826597;29;20027;-73
2021/01/13 07:36:11;;;;;;;4.78;2.00;;;6.00;57.00;;;;;;4826440;29;20062;-73
2021/01/13 07:38:43;;;;;;;11.27;2.70;;;6.00;57.50;;;;;;4823773;29;20328;-73
2021/01/13 07:41:10;;;;;;;7.85;2.13;;;6.00;57.40;;;;;;4821871;29;20018;-73
2021/01/13 07:44:10;;;;;;;4.70;1.87;;;5.90;58.10;;;;;;4822240;29;20019;-74
2021/01/13 07:46:36;;;;;;;4.10;2.38;;;5.90;58.20;;;;;;4824788;29;20272;-73
2021/01/13 07:49:20;;;;;;;6.72;2.55;;;5.80;58.50;;;;;;4825022;29;20037;-73
2021/01/13 07:51:48;;;;;;;12.48;3.08;;;5.90;59.00;;;;;;4822782;29;20026;-73
2021/01/13 07:54:22;;;;;;;;;;;5.80;59.20;;;;;;4824164;29;20042;-74
2021/01/13 07:56:52;;;;;;;3.38;1.77;;;5.80;59.40;;;;;;4821065;29;19909;-73
2021/01/13 07:59:34;;;;;;;8.60;2.20;;;6.00;59.10;;;;;;4822142;29;20046;-74
2021/01/13 08:02:31;;;;;;;5.40;1.85;;;6.00;58.60;;;;;;4829716;29;20036;-74
2021/01/13 08:05:16;;;;;;;6.43;1.67;;;6.00;58.70;;;;;;4837569;29;20041;-74
2021/01/13 08:07:44;;;;;;;8.88;2.05;;;5.90;57.90;;;;;;4823457;29;20106;-73
2021/01/13 08:10:10;;;;;;;6.20;2.22;;;5.90;58.50;;;;;;4821777;29;20038;-74
2021/01/13 08:13:23;;;;;;;7.38;2.60;;;6.00;58.50;;;;;;4825766;29;20090;-74
2021/01/13 08:16:05;;;;;;;3.55;1.48;;;6.10;57.60;;;;;;4790417;30;20106;-73
2021/01/13 08:18:49;;;;;;;2.90;1.48;;;6.20;57.10;;;;;;4787799;30;20102;-73
2021/01/13 08:21:26;;;;;;;9.68;2.42;;;6.10;56.50;;;;;;4770506;30;20107;-73
2021/01/13 08:24:05;;;;;;;6.53;1.73;;;6.20;56.40;;;;;;4785902;30;20066;-73
2021/01/13 08:26:31;;;;;;;12.88;1.85;;;6.00;56.60;;;;;;4790319;29;20035;-73
2021/01/13 08:29:01;;;;;;;7.93;1.77;;;6.30;56.50;;;;;;4781118;30;20043;-73
2021/01/13 08:31:27;;;;;;;9.55;2.42;;;6.40;56.50;;;;;;4785933;29;20046;-73
2021/01/13 08:34:04;;;;;;;5.80;1.90;;;6.20;55.70;;;;;;4778243;30;20305;-73
2021/01/13 08:36:30;;;;;;;4.68;1.80;;;6.40;55.40;;;;;;4767371;30;20061;-73
2021/01/13 08:39:15;;;;;;;12.25;1.73;;;6.40;55.50;;;;;;4786921;30;20069;-74
2021/01/13 08:41:42;;;;;;;5.65;1.83;;;6.20;55.30;;;;;;4762430;30;20054;-74
2021/01/13 08:44:11;;;;;;;5.35;1.80;;;6.30;55.30;;;;;;4776439;30;20327;-75
2021/01/13 08:46:43;;;;;;;4.38;1.70;;;6.20;55.20;;;;;;4798532;29;20066;-74
2021/01/13 08:49:09;;;;;;;4.03;1.67;;;6.30;54.90;;;;;;4833336;29;20049;-73
2021/01/13 08:51:35;;;;;;;7.95;1.92;;;6.40;55.30;;;;;;4833208;29;20030;-76
2021/01/13 08:54:21;;;;;;;2.70;1.73;;;6.50;55.00;;;;;;4828376;29;20033;-74
2021/01/13 08:57:07;;;;;;;8.05;2.03;;;6.50;54.20;;;;;;4814745;29;20037;-74
2021/01/13 08:59:38;;;;;;;7.43;1.90;;;6.40;53.80;;;;;;4824253;29;20318;-74
2021/01/13 09:02:15;;;;;;;6.07;1.70;;;6.30;54.00;;;;;;4833264;29;20038;-74
2021/01/13 09:04:50;;;;;;;8.73;1.90;;;6.20;54.20;;;;;;4831705;29;20039;-73
2021/01/13 09:07:27;;;;;;;7.05;2.13;;;6.10;53.90;;;;;;4832835;29;20238;-74
2021/01/13 09:10:05;;;;;;;3.35;1.48;;;6.20;54.60;;;;;;4847186;29;20076;-73
2021/01/13 09:12:45;;;;;;;7.05;2.30;;;6.10;54.30;;;;;;4846817;29;20072;-73
2021/01/13 09:15:20;;;;;;;12.98;2.83;;;6.20;55.00;;;;;;4831848;29;20030;-75
2021/01/13 09:17:49;;;;;;;11.82;2.38;;;6.20;55.50;;;;;;4832922;29;20333;-74
2021/01/13 09:20:29;;;;;;;8.07;2.30;;;6.20;55.30;;;;;;4831881;29;20094;-74
2021/01/13 09:22:58;;;;;;;10.63;3.22;;;6.20;55.30;;;;;;4831701;29;20046;-74
2021/01/13 09:25:43;;;;;;;13.60;3.40;;;6.40;55.00;;;;;;4831542;29;20030;-74
2021/01/13 09:28:19;;;;;;;12.63;2.83;;;6.40;54.70;;;;;;4800588;29;20051;-74
2021/01/13 09:30:45;;;;;;;6.97;2.60;;;6.30;55.00;;;;;;4818904;29;20026;-74
2021/01/13 09:33:16;;;;;;;4.37;2.37;;;6.40;54.90;;;;;;4850472;29;20102;-74
2021/01/13 09:35:44;;;;;;;13.63;2.63;;;6.30;54.20;;;;;;4849870;29;20030;-74
2021/01/13 09:38:14;;;;;;;10.20;2.78;;;6.30;53.90;;;;;;4854895;29;20303;-73
2021/01/13 09:41:01;;;;;;;12.18;2.80;;;6.50;54.30;;;;;;4830325;29;20030;-74
2021/01/13 09:43:33;;;;;;;12.90;2.50;;;6.60;53.70;;;;;;4832482;29;20034;-74
2021/01/13 09:46:03;;;;;;;4.93;2.65;;;6.60;52.80;;;;;;4830970;29;20062;-73
2021/01/13 09:48:32;;;;;;;13.07;3.63;;;6.60;53.00;;;;;;4813010;29;20387;-74
2021/01/13 09:51:06;;;;;;;10.73;3.67;;;6.60;53.40;;;;;;4827389;29;20042;-74
2021/01/13 09:53:35;;;;;;;5.25;2.45;;;6.60;53.00;;;;;;4823825;29;20039;-73
2021/01/13 09:56:09;;;;;;;8.65;2.67;;;6.60;53.10;;;;;;4826574;29;20023;-73
2021/01/13 09:58:41;;;;;;;9.50;3.28;;;6.70;52.90;;;;;;4826553;29;20329;-73
2021/01/13 10:01:38;;;;;;;8.82;2.40;;;6.70;52.20;;;;;;4826622;29;20026;-74
2021/01/13 10:04:10;;;;;;;;;;;6.60;52.70;;;;;;4773136;30;20320;-73
2021/01/13 10:06:41;;;;;;;8.85;2.75;;;6.70;52.70;;;;;;4779528;30;19917;-74
2021/01/13 10:09:15;;;;;;;9.38;2.97;;;6.80;52.00;;;;;;4779318;30;20089;-73
2021/01/13 10:11:41;;;;;;;5.65;2.08;;;6.90;51.80;;;;;;4779704;30;20051;-74
2021/01/13 10:14:09;;;;;;;8.77;2.28;;;7.00;51.80;;;;;;4764588;30;20111;-74
2021/01/13 10:16:43;;;;;;;8.43;2.65;;;7.10;50.90;;;;;;4764377;30;20251;-74
2021/01/13 10:19:09;;;;;;;8.90;2.45;;;7.00;51.00;;;;;;4762595;30;20386;-73
2021/01/13 10:21:48;;;;;;;10.82;2.70;;;6.90;51.40;;;;;;4760836;30;20059;-73
2021/01/13 10:24:16;;;;;;;4.55;2.25;;;6.90;50.30;;;;;;4760969;30;20378;-73
2021/01/13 10:26:49;;;;;;;9.75;2.78;;;6.90;51.10;;;;;;4760817;30;20044;-74
2021/01/13 10:29:21;;;;;;;9.48;2.78;;;6.90;51.20;;;;;;4782533;30;20036;-73
2021/01/13 10:31:48;;;;;;;14.93;3.15;;;6.80;52.00;;;;;;4773489;30;20056;-74
2021/01/13 10:34:15;;;;;;;8.25;2.50;;;7.00;51.80;;;;;;4755868;30;20119;-73
2021/01/13 10:36:42;;;;;;;9.27;3.10;;;6.90;51.10;;;;;;4749029;30;20212;-74
2021/01/13 10:39:17;;;;;;;9.73;2.00;;;6.90;51.30;;;;;;4778784;30;20076;-74
2021/01/13 10:41:48;;;;;;;4.72;2.25;;;7.00;51.50;;;;;;4835067;29;20227;-74
2021/01/13 10:44:23;;;;;;;10.02;3.10;;;6.90;51.70;;;;;;4834777;29;20026;-73
2021/01/13 10:47:04;;;;;;;5.80;2.40;;;6.70;51.90;;;;;;4822636;29;20081;-74
2021/01/13 10:49:34;;;;;;;10.75;2.47;;;6.80;52.20;;;;;;4816842;29;20047;-73
2021/01/13 10:52:04;;;;;;;6.32;2.85;;;6.90;51.70;;;;;;4819455;29;20329;-74
2021/01/13 10:54:32;;;;;;;12.50;2.58;;;6.80;51.60;;;;;;4830553;29;20037;-74
2021/01/13 10:57:06;;;;;;;5.10;2.50;;;6.80;51.30;;;;;;4834019;29;20031;-73
2021/01/13 10:59:33;;;;;;;3.72;2.20;;;6.60;51.50;;;;;;4831905;29;20030;-74
2021/01/13 11:02:00;;;;;;;5.97;2.63;;;6.70;51.30;;;;;;4820771;29;20230;-74
2021/01/13 11:04:29;;;;;;;6.57;2.45;;;6.70;51.70;;;;;;4818438;29;20045;-74
2021/01/13 11:07:01;;;;;;;9.20;3.30;;;6.80;51.70;;;;;;4832842;29;20079;-74
2021/01/13 11:09:27;;;;;;;12.73;2.83;;;7.00;52.00;;;;;;4848395;29;20062;-73
2021/01/13 11:11:54;;;;;;;4.95;2.58;;;6.80;51.70;;;;;;4822943;29;20060;-74
2021/01/13 11:14:51;;;;;;;7.50;2.95;;;6.80;52.00;;;;;;4842413;29;20030;-73
2021/01/13 11:17:19;;;;;;;6.05;3.63;;;6.80;52.50;;;;;;4830613;29;20037;-73
2021/01/13 11:19:48;;;;;;;14.48;2.80;;;6.80;52.70;;;;;;4817461;29;20057;-73
2021/01/13 11:22:15;;;;;;;7.68;3.05;;;6.70;52.40;;;;;;4816154;29;20031;-74
2021/01/13 11:24:41;;;;;;;7.20;3.30;;;6.60;52.90;;;;;;4830126;29;20038;-74
2021/01/13 11:27:18;;;;;;;9.43;3.53;;;6.60;53.70;;;;;;4834382;29;20307;-73
2021/01/13 11:29:47;;;;;;;;;;;6.70;54.60;;;;;;4834483;29;20062;-74
2021/01/13 11:32:19;;;;;;;12.00;3.95;;;6.90;54.00;;;;;;4840103;29;19944;-74
2021/01/13 11:34:50;;;;;;;12.10;4.10;;;7.10;53.60;;;;;;4832880;29;20101;-74
2021/01/13 11:37:18;;;;;;;7.00;3.83;;;7.10;54.10;;;;;;4832819;29;20030;-73
2021/01/13 11:40:11;;;;;;;6.88;3.50;;;7.10;54.10;;;;;;4832737;29;20318;-74
2021/01/13 11:42:51;;;;;;;13.60;4.63;;;7.10;54.70;;;;;;4833157;29;20040;-74
2021/01/13 11:45:30;;;;;;;9.65;4.60;;;7.10;55.20;;;;;;4822764;29;20046;-74
2021/01/13 11:48:04;;;;;;;9.65;4.68;;;6.80;56.70;;;;;;4824108;29;20067;-73
2021/01/13 11:50:36;;;;;;;11.02;5.28;;;7.00;56.90;;;;;;4833049;29;20114;-73
2021/01/13 11:53:05;;;;;;;8.50;5.15;;;6.90;57.20;;;;;;4847082;29;20042;-74
2021/01/13 11:55:32;;;;;;;9.85;5.43;;;6.90;57.00;;;;;;4833069;29;20034;-73
2021/01/13 11:57:58;;;;;;;16.85;5.95;;;6.80;57.40;;;;;;4817534;29;20075;-74
2021/01/13 12:00:28;;;;;;;13.38;5.80;;;6.80;57.70;;;;;;4833713;29;20042;-74
2021/01/13 12:02:59;;;;;;;11.35;5.65;;;6.70;58.00;;;;;;4833845;29;20030;-74
2021/01/13 12:05:29;;;;;;;11.13;5.35;;;6.70;58.20;;;;;;4847673;29;20034;-74
2021/01/13 12:08:03;;;;;;;15.18;5.80;;;6.70;58.40;;;;;;4832735;29;20217;-74
2021/01/13 12:10:40;;;;;;;14.73;6.28;;;6.90;58.10;;;;;;4843488;29;20381;-74
2021/01/13 12:13:15;;;;;;;12.15;5.70;;;6.90;58.10;;;;;;4830319;29;20026;-73
2021/01/13 12:16:05;;;;;;;12.48;5.78;;;6.90;57.60;;;;;;4820153;29;20025;-73
2021/01/13 12:18:42;;;;;;;11.35;5.20;;;7.00;57.90;;;;;;4849329;29;20118;-74
2021/01/13 12:21:14;;;;;;;;;;;7.10;57.80;;;;;;4851307;29;20034;-74
2021/01/13 12:23:41;;;;;;;8.40;5.00;;;7.00;56.90;;;;;;4857854;29;19923;-74
2021/01/13 12:26:13;;;;;;;10.18;4.57;;;6.90;57.00;;;;;;4833437;29;20105;-74
2021/01/13 12:28:39;;;;;;;8.98;4.43;;;6.80;56.00;;;;;;4840829;29;20305;-73
2021/01/13 12:31:04;;;;;;;10.07;4.72;;;6.80;56.00;;;;;;4835258;29;20106;-74
2021/01/13 12:33:31;;;;;;;18.08;5.03;;;6.80;56.50;;;;;;4826022;29;20039;-74
2021/01/13 12:35:57;;;;;;;11.20;4.05;;;6.80;56.40;;;;;;4815380;29;20031;-73
2021/01/13 12:38:41;;;;;;;8.45;4.30;;;6.80;55.50;;;;;;4819272;29;20344;-74
2021/01/13 12:41:06;;;;;;;10.68;4.55;;;6.70;56.00;;;;;;4814930;29;20071;-74
2021/01/13 12:43:36;;;;;;;9.35;4.30;;;6.90;56.40;;;;;;4815107;29;20098;-74
2021/01/13 12:46:02;;;;;;;12.20;4.80;;;7.00;56.20;;;;;;4833053;29;20122;-74
2021/01/13 12:48:28;;;;;;;10.70;4.78;;;7.00;56.40;;;;;;4831999;29;20030;-74
2021/01/13 12:50:53;;;;;;;13.35;6.13;;;7.20;56.80;;;;;;4833520;29;20034;-74
2021/01/13 12:53:19;;;;;;;14.32;6.03;;;7.20;57.40;;;;;;4832077;29;20023;-74
2021/01/13 12:55:45;;;;;;;10.70;5.00;;;7.20;57.00;;;;;;4827320;29;20140;-74
2021/01/13 12:58:10;;;;;;;15.20;6.20;;;7.00;56.80;;;;;;4832954;29;20479;-75
2021/01/13 13:00:37;;;;;;;11.40;5.38;;;7.10;57.30;;;;;;4833296;29;20033;-74
2021/01/13 13:03:03;;;;;;;14.70;5.32;;;7.00;57.10;;;;;;4839983;29;20101;-73
2021/01/13 13:05:29;;;;;;;11.23;5.18;;;6.80;57.70;;;;;;4832231;29;20056;-74
2021/01/13 13:07:55;;;;;;;18.33;6.80;;;6.70;58.00;;;;;;4833187;29;20030;-74
2021/01/13 13:10:21;;;;;;;11.45;6.00;;;6.70;58.40;;;;;;4816090;29;20030;-73
2021/01/13 13:12:46;;;;;;;10.23;4.53;;;6.90;58.20;;;;;;4813914;29;20269;-74
2021/01/13 13:15:12;;;;;;;11.55;4.95;;;6.80;57.60;;;;;;4824700;29;20333;-74
2021/01/13 13:17:39;;;;;;;10.57;5.22;;;6.60;57.40;;;;;;4835574;29;20037;-74
2021/01/13 13:20:07;;;;;;;19.00;4.75;;;6.70;57.70;;;;;;4830865;29;20228;-73
2021/01/13 13:22:34;;;;;;;18.73;6.40;;;6.60;57.80;;;;;;4831723;29;20039;-74
2021/01/13 13:24:59;;;;;;;12.93;5.80;;;6.40;58.60;;;;;;4832718;29;20054;-74
2021/01/13 13:27:25;;;;;;;13.80;4.97;;;6.60;58.80;;;;;;4832786;29;20207;-74
2021/01/13 13:29:51;;;;;;;13.57;5.35;;;6.50;57.90;;;;;;4819764;29;20034;-74
2021/01/13 13:32:18;;;;;;;9.18;5.20;;;6.60;58.50;;;;;;4821505;29;20058;-74
2021/01/13 13:34:45;;;;;;;10.98;4.90;;;6.60;58.10;;;;;;4831258;29;20087;-74
2021/01/13 13:37:10;;;;;;;17.40;5.68;;;6.70;57.60;;;;;;4835014;29;20034;-74
2021/01/13 13:39:36;;;;;;;15.35;4.97;;;6.40;57.50;;;;;;4836086;29;20037;-73
2021/01/13 13:42:02;;;;;;;12.52;5.22;;;6.50;57.50;;;;;;4820120;29;20111;-74
2021/01/13 13:44:31;;;;;;;14.98;5.45;;;6.70;57.30;;;;;;4834592;29;20105;-74
2021/01/13 13:46:58;;;;;;;11.05;4.15;;;6.90;56.60;;;;;;4830643;29;20081;-74
2021/01/13 13:49:24;;;;;;;9.73;4.63;;;6.80;56.10;;;;;;4834589;29;20034;-74
2021/01/13 13:51:50;;;;;;;14.48;4.47;;;6.70;56.20;;;;;;4834756;29;20049;-73
2021/01/13 13:54:16;;;;;;;13.10;4.40;;;6.70;56.40;;;;;;4834621;29;20245;-74
2021/01/13 13:56:41;;;;;;;13.40;4.70;;;6.70;56.30;;;;;;4835530;29;20019;-73
2021/01/13 13:59:07;;;;;;;16.40;4.32;;;6.70;55.90;;;;;;4834164;29;20030;-74
2021/01/13 14:01:33;;;;;;;18.10;4.55;;;6.60;56.20;;;;;;4834640;29;20030;-73
2021/01/13 14:03:59;;;;;;;14.00;4.30;;;6.60;56.20;;;;;;4825677;29;20056;-74
2021/01/13 14:06:26;;;;;;;15.23;4.03;;;6.70;56.20;;;;;;4834614;29;20038;-74
2021/01/13 14:08:52;;;;;;;13.00;3.88;;;6.70;55.70;;;;;;4834099;29;20357;-74
2021/01/13 14:11:18;;;;;;;15.18;4.72;;;6.50;55.70;;;;;;4840590;29;20046;-74
2021/01/13 14:13:44;;;;;;;18.27;4.82;;;6.60;55.80;;;;;;4833156;29;20038;-74
2021/01/13 14:16:10;;;;;;;9.40;4.28;;;6.70;55.60;;;;;;4833709;29;20214;-73
2021/01/13 14:18:36;;;;;;;13.55;4.70;;;6.60;55.90;;;;;;4835000;29;20111;-74
2021/01/13 14:21:02;;;;;;;18.73;5.10;;;6.70;55.50;;;;;;4834977;29;20355;-74
2021/01/13 14:23:27;;;;;;;9.98;4.57;;;6.60;55.90;;;;;;4833935;29;20139;-74
2021/01/13 14:25:54;;;;;;;15.80;4.57;;;6.60;56.40;;;;;;4834966;29;20105;-74
2021/01/13 14:28:19;;;;;;;20.02;4.65;;;6.30;57.30;;;;;;4834188;29;20049;-73
2021/01/13 14:30:46;;;;;;;12.95;4.05;;;6.40;56.60;;;;;;4829555;29;20035;-74
2021/01/13 14:33:11;;;;;;;14.55;4.20;;;6.40;56.40;;;;;;4830795;29;20077;-74
2021/01/13 14:35:37;;;;;;;14.88;4.78;;;6.50;55.90;;;;;;4815541;29;20027;-74
2021/01/13 14:38:03;;;;;;;12.90;4.20;;;6.50;56.40;;;;;;4815965;29;20033;-74
2021/01/13 14:40:29;;;;;;;8.82;4.15;;;6.60;56.40;;;;;;4820651;29;20294;-74
2021/01/13 14:42:54;;;;;;;14.35;5.20;;;6.40;56.60;;;;;;4818108;29;20042;-74
2021/01/13 14:45:20;;;;;;;15.45;4.78;;;6.30;57.00;;;;;;4832123;29;20030;-74
2021/01/13 14:47:46;;;;;;;24.50;4.88;;;6.40;56.80;;;;;;4838541;29;20042;-74
2021/01/13 14:50:12;;;;;;;12.63;4.20;;;6.40;56.90;;;;;;4824762;29;20042;-74
2021/01/13 14:52:38;;;;;;;9.68;4.35;;;6.40;56.80;;;;;;4838337;29;20038;-74
2021/01/13 14:55:04;;;;;;;18.48;4.40;;;6.40;57.00;;;;;;4845491;29;20062;-73
2021/01/13 14:57:30;;;;;;;16.58;3.90;;;6.40;57.10;;;;;;4815125;29;20034;-73
2021/01/13 14:59:59;;;;;;;9.55;4.07;;;6.50;57.30;;;;;;4816586;29;20026;-74
2021/01/13 15:02:25;;;;;;;9.93;4.05;;;6.40;57.30;;;;;;4816583;29;20038;-73
2021/01/13 15:04:50;;;;;;;14.27;3.85;;;6.30;57.50;;;;;;4815052;29;20031;-73
2021/01/13 15:07:16;;;;;;;17.33;2.92;;;6.30;57.90;;;;;;4815263;29;20322;-74
2021/01/13 15:09:42;;;;;;;11.18;4.20;;;6.20;58.10;;;;;;4815435;29;20321;-74
2021/01/13 15:12:10;;;;;;;10.02;3.60;;;6.30;58.10;;;;;;4815203;29;20341;-73
2021/01/13 15:14:36;;;;;;;16.67;4.55;;;6.40;57.70;;;;;;4816098;29;20069;-73
2021/01/13 15:17:02;;;;;;;21.42;3.78;;;6.40;57.90;;;;;;4825638;29;20034;-74
2021/01/13 15:19:27;;;;;;;12.93;3.47;;;6.40;57.60;;;;;;4823305;29;20093;-74
2021/01/13 15:21:55;;;;;;;19.50;3.60;;;6.10;58.00;;;;;;4832583;29;20054;-73
2021/01/13 15:24:20;;;;;;;;;;;6.10;58.50;;;;;;4824600;29;20023;-73
2021/01/13 15:26:46;;;;;;;7.40;3.10;;;6.00;58.30;;;;;;4816009;29;19948;-73
2021/01/13 15:29:13;;;;;;;8.90;3.63;;;6.10;58.50;;;;;;4846047;29;20038;-73
2021/01/13 15:31:39;;;;;;;13.90;3.13;;;6.00;58.50;;;;;;4834242;29;20378;-73
2021/01/13 15:34:05;;;;;;;11.77;3.03;;;5.90;59.00;;;;;;4832214;29;20313;-73
2021/01/13 15:36:31;;;;;;;13.13;3.08;;;6.00;59.00;;;;;;4830180;29;20038;-73
2021/01/13 15:38:57;;;;;;;16.48;4.40;;;6.00;58.60;;;;;;4833660;29;20026;-73
2021/01/13 15:41:23;;;;;;;11.38;3.03;;;5.80;59.10;;;;;;4830100;29;20034;-74
2021/01/13 15:43:52;;;;;;;10.93;3.38;;;5.70;59.30;;;;;;4832615;29;20034;-73
2021/01/13 15:46:21;;;;;;;7.93;3.70;;;5.80;59.70;;;;;;4819078;29;20086;-73
2021/01/13 15:48:48;;;;;;;9.85;3.22;;;5.70;60.00;;;;;;4832555;29;20042;-73
2021/01/13 15:51:14;;;;;;;10.60;3.40;;;5.80;60.10;;;;;;4833786;29;20027;-73
2021/01/13 15:53:42;;;;;;;15.75;3.78;;;5.80;60.30;;;;;;4832279;29;20364;-73
2021/01/13 15:56:11;;;;;;;15.77;3.72;;;5.90;60.60;;;;;;4833769;29;20027;-73
2021/01/13 15:58:50;;;;;;;7.30;2.95;;;5.90;59.90;;;;;;4833768;29;20037;-72
2021/01/13 16:01:16;;;;;;;11.32;3.75;;;5.70;59.40;;;;;;4817519;29;20317;-73
2021/01/13 16:03:42;;;;;;;9.30;2.92;;;5.80;59.50;;;;;;4833807;29;20045;-73
2021/01/13 16:06:09;;;;;;;10.48;3.40;;;5.80;59.40;;;;;;4833861;29;20031;-72
2021/01/13 16:08:35;;;;;;;12.73;3.53;;;5.60;59.30;;;;;;4833708;29;20022;-73
2021/01/13 16:11:01;;;;;;;9.23;3.30;;;5.80;59.40;;;;;;4833629;29;20034;-73
2021/01/13 16:13:29;;;;;;;9.38;3.53;;;5.60;58.90;;;;;;4820354;29;20303;-73
2021/01/13 16:15:55;;;;;;;12.45;3.30;;;5.90;59.10;;;;;;4817409;29;20038;-73
2021/01/13 16:18:21;;;;;;;11.93;3.30;;;5.90;59.10;;;;;;4825403;29;20366;-73
2021/01/13 16:20:47;;;;;;;13.50;3.55;;;5.90;59.30;;;;;;4815296;29;20527;-73
2021/01/13 16:23:13;;;;;;;13.27;3.85;;;6.10;59.00;;;;;;4819039;29;20037;-73
2021/01/13 16:25:39;;;;;;;9.90;3.15;;;5.90;58.40;;;;;;4833640;29;20022;-73
2021/01/13 16:28:05;;;;;;;10.47;3.43;;;6.00;58.10;;;;;;4832332;29;20109;-73
2021/01/13 16:30:32;;;;;;;15.50;3.97;;;5.90;57.90;;;;;;4832383;29;20339;-73
2021/01/13 16:33:01;;;;;;;10.45;3.58;;;6.00;58.20;;;;;;4833320;29;20073;-73
2021/01/13 16:35:27;;;;;;;9.35;3.35;;;5.90;57.40;;;;;;4828456;29;20037;-73
2021/01/13 16:37:55;;;;;;;17.30;4.18;;;5.90;58.10;;;;;;4824697;29;20038;-73
2021/01/13 16:40:21;;;;;;;9.45;3.38;;;6.00;57.60;;;;;;4823031;29;20057;-73
2021/01/13 16:42:47;;;;;;;6.82;3.00;;;5.90;57.30;;;;;;4821607;29;20042;-73
2021/01/13 16:45:15;;;;;;;8.90;3.55;;;6.00;57.30;;;;;;4825377;29;20326;-73
2021/01/13 16:47:41;;;;;;;11.30;3.00;;;5.90;57.60;;;;;;4826381;29;20404;-73
2021/01/13 16:50:09;;;;;;;9.50;3.47;;;5.70;57.40;;;;;;4824307;29;20042;-74
2021/01/13 16:52:35;;;;;;;10.15;3.85;;;5.80;57.80;;;;;;4825242;29;20102;-73
2021/01/13 16:55:03;;;;;;;10.15;3.22;;;5.90;57.80;;;;;;4832130;29;20030;-73
2021/01/13 16:57:31;;;;;;;13.82;3.78;;;5.80;57.30;;;;;;4832128;29;20026;-73
2021/01/13 17:00:04;;;;;;;14.40;3.55;;;5.60;57.60;;;;;;4833197;29;20397;-73